Pantego, Texas
Current Conditions -  °F | °C
As of 12:53 PM on Friday 24 Oct 2014 (Local Time) from KGKY Reporting Station
Clear Clear  
Wind Chill: 26°   Ceiling: Unl
Heat Index: 27°   Visibility: 10mi
Dew Point: 14°   Wind: 7mph
Humidity: 47%   Direction: 180°S
Pressure: 30.15"   Gusts: NA
Location:  32.6916°N, 97.1334°W
Report Text: KGKY 241753Z 18006KT 10SM CLR 26/14 A3015 RMK AO2 SLP201 T02610139 10261 20161 58009
Loading
Personal Weather Stations






























Interactive Weather Map
Tropical Storm Tracking
New forecast layout! Learn more

10-Day Weather Forecast

Advertisements
Track Severe Weather on mobile